BLX341 ESSA-ESMX
Flight info
| Callsign | BLX341 |
|---|---|
| Flight time | 0h 37m |
| Altitude | 24000 |
| Route | NOSLI DCT TONSA DCT PELUP DCT MIKNA DCT NEFYN DCT BEDOS DCT IBTOX |
| Aircraft | B38M/M-SDE1FGHILORVWXY/HB1 |
Departure
| Time | 2026-05-01 07:52 |
|---|---|
| Airport | Stockholm-Arlanda Airport (ESSA) |
Arrival
| Time | 2026-05-01 08:30 |
|---|---|
| Airport | Växjö Kronoberg Airport (ESMX) |
| Time | Latitude | Longitude | Altitude | Speed | Heading |
|---|---|---|---|---|---|
| 2026-05-01 07:26 | 59.65284 | 17.93178 | 114 ft | 0 kts | 251° |
| 2026-05-01 07:44 | 59.65284 | 17.93181 | 114 ft | 2 kts | 251° |
| 2026-05-01 07:45 | 59.65292 | 17.93228 | 112 ft | 4 kts | 251° |
| 2026-05-01 07:45 | 59.65299 | 17.93266 | 111 ft | 4 kts | 253° |
| 2026-05-01 07:45 | 59.65300 | 17.93271 | 111 ft | 4 kts | 255° |
| 2026-05-01 07:45 | 59.65303 | 17.93323 | 111 ft | 4 kts | 274° |
| 2026-05-01 07:46 | 59.65300 | 17.93359 | 110 ft | 0 kts | 281° |
| 2026-05-01 07:48 | 59.65302 | 17.93343 | 111 ft | 2 kts | 281° |
| 2026-05-01 07:48 | 59.65312 | 17.93312 | 112 ft | 3 kts | 326° |
| 2026-05-01 07:48 | 59.65354 | 17.93284 | 113 ft | 13 kts | 344° |
| 2026-05-01 07:49 | 59.65467 | 17.93204 | 113 ft | 20 kts | 332° |
| 2026-05-01 07:49 | 59.65459 | 17.92826 | 114 ft | 19 kts | 247° |
| 2026-05-01 07:49 | 59.65451 | 17.92606 | 110 ft | 16 kts | 321° |
| 2026-05-01 07:50 | 59.65591 | 17.92502 | 106 ft | 26 kts | 344° |
| 2026-05-01 07:50 | 59.66040 | 17.92518 | 113 ft | 35 kts | 11° |
| 2026-05-01 07:50 | 59.66278 | 17.92608 | 119 ft | 34 kts | 11° |
| 2026-05-01 07:51 | 59.66504 | 17.92628 | 124 ft | 32 kts | 342° |
| 2026-05-01 07:51 | 59.66623 | 17.92436 | 127 ft | 16 kts | 259° |
| 2026-05-01 07:51 | 59.66531 | 17.92337 | 125 ft | 18 kts | 191° |
| 2026-05-01 07:52 | 59.65471 | 17.91953 | 110 ft | 143 kts | 190° |
| 2026-05-01 07:52 | 59.64409 | 17.91577 | 546 ft | 157 kts | 190° |
| 2026-05-01 07:52 | 59.63290 | 17.91174 | 1168 ft | 169 kts | 193° |
| 2026-05-01 07:53 | 59.60979 | 17.89571 | 2386 ft | 193 kts | 220° |
| 2026-05-01 07:53 | 59.60055 | 17.87445 | 2704 ft | 220 kts | 244° |
| 2026-05-01 07:53 | 59.59446 | 17.84705 | 3633 ft | 212 kts | 247° |
| 2026-05-01 07:53 | 59.58807 | 17.82032 | 4423 ft | 222 kts | 246° |
| 2026-05-01 07:54 | 59.57288 | 17.76151 | 5521 ft | 260 kts | 243° |
| 2026-05-01 07:55 | 59.52672 | 17.70022 | 8060 ft | 278 kts | 212° |
| 2026-05-01 07:55 | 59.49168 | 17.66505 | 9722 ft | 286 kts | 211° |
| 2026-05-01 07:56 | 59.43557 | 17.60972 | 11244 ft | 325 kts | 211° |
| 2026-05-01 07:56 | 59.39422 | 17.56919 | 12584 ft | 337 kts | 211° |
| 2026-05-01 07:57 | 59.37306 | 17.54850 | 13273 ft | 342 kts | 211° |
| 2026-05-01 07:57 | 59.32993 | 17.50643 | 14621 ft | 351 kts | 211° |
| 2026-05-01 07:58 | 59.28587 | 17.46358 | 15921 ft | 357 kts | 211° |
| 2026-05-01 07:58 | 59.24087 | 17.41993 | 17183 ft | 365 kts | 212° |
| 2026-05-01 07:59 | 59.19497 | 17.37555 | 18408 ft | 372 kts | 211° |
| 2026-05-01 07:59 | 59.14821 | 17.33047 | 19445 ft | 378 kts | 211° |
| 2026-05-01 08:00 | 59.05561 | 17.22974 | 21447 ft | 382 kts | 225° |
| 2026-05-01 08:01 | 58.99326 | 17.12959 | 22875 ft | 393 kts | 224° |
| 2026-05-01 08:01 | 58.97932 | 17.10716 | 23191 ft | 394 kts | 224° |
| 2026-05-01 08:01 | 58.95107 | 17.06180 | 23948 ft | 394 kts | 224° |
| 2026-05-01 08:02 | 58.90879 | 16.99407 | 24247 ft | 393 kts | 224° |
| 2026-05-01 08:02 | 58.88778 | 16.96048 | 24237 ft | 392 kts | 224° |
| 2026-05-01 08:03 | 58.84574 | 16.89345 | 24237 ft | 392 kts | 224° |
| 2026-05-01 08:03 | 58.82499 | 16.86044 | 24233 ft | 392 kts | 224° |
| 2026-05-01 08:03 | 58.78286 | 16.79361 | 24237 ft | 392 kts | 224° |
| 2026-05-01 08:04 | 58.74070 | 16.72692 | 24241 ft | 392 kts | 224° |
| 2026-05-01 08:04 | 58.69848 | 16.66037 | 24235 ft | 392 kts | 224° |
| 2026-05-01 08:05 | 58.65627 | 16.59402 | 24256 ft | 392 kts | 223° |
| 2026-05-01 08:05 | 58.63513 | 16.56087 | 24255 ft | 392 kts | 223° |
| 2026-05-01 08:05 | 58.61190 | 16.53303 | 24248 ft | 399 kts | 206° |
| 2026-05-01 08:06 | 58.55664 | 16.51484 | 24264 ft | 408 kts | 188° |
| 2026-05-01 08:06 | 58.50000 | 16.50645 | 24265 ft | 409 kts | 187° |
| 2026-05-01 08:07 | 58.44327 | 16.49899 | 24262 ft | 409 kts | 186° |
| 2026-05-01 08:07 | 58.38647 | 16.49172 | 24263 ft | 409 kts | 186° |
| 2026-05-01 08:08 | 58.35811 | 16.48812 | 24261 ft | 409 kts | 186° |
| 2026-05-01 08:08 | 58.30130 | 16.47989 | 24257 ft | 407 kts | 193° |
| 2026-05-01 08:09 | 58.25281 | 16.43501 | 23916 ft | 380 kts | 220° |
| 2026-05-01 08:09 | 58.23187 | 16.40509 | 23652 ft | 374 kts | 221° |
| 2026-05-01 08:09 | 58.21146 | 16.37521 | 23370 ft | 368 kts | 222° |
| 2026-05-01 08:10 | 58.17180 | 16.31624 | 22823 ft | 357 kts | 222° |
| 2026-05-01 08:10 | 58.13315 | 16.25832 | 22274 ft | 353 kts | 223° |
| 2026-05-01 08:11 | 58.09480 | 16.20091 | 21718 ft | 350 kts | 222° |
| 2026-05-01 08:11 | 58.05697 | 16.14442 | 20957 ft | 347 kts | 223° |
| 2026-05-01 08:12 | 58.01931 | 16.08836 | 20264 ft | 342 kts | 222° |
| 2026-05-01 08:12 | 58.00042 | 16.06028 | 19925 ft | 340 kts | 222° |
| 2026-05-01 08:12 | 57.96367 | 16.00578 | 19254 ft | 336 kts | 222° |
| 2026-05-01 08:13 | 57.94533 | 15.97864 | 18923 ft | 335 kts | 222° |
| 2026-05-01 08:13 | 57.92704 | 15.95160 | 18581 ft | 333 kts | 222° |
| 2026-05-01 08:13 | 57.89657 | 15.90663 | 17909 ft | 332 kts | 222° |
| 2026-05-01 08:14 | 57.87242 | 15.87107 | 17474 ft | 328 kts | 222° |
| 2026-05-01 08:14 | 57.85453 | 15.84475 | 17143 ft | 325 kts | 223° |
| 2026-05-01 08:14 | 57.83704 | 15.81906 | 16828 ft | 322 kts | 222° |
| 2026-05-01 08:14 | 57.82513 | 15.80159 | 16606 ft | 321 kts | 223° |
| 2026-05-01 08:15 | 57.80199 | 15.76766 | 16184 ft | 317 kts | 223° |
| 2026-05-01 08:15 | 57.76744 | 15.71715 | 15546 ft | 313 kts | 223° |
| 2026-05-01 08:15 | 57.75034 | 15.69219 | 15233 ft | 310 kts | 223° |
| 2026-05-01 08:16 | 57.73887 | 15.67547 | 15024 ft | 309 kts | 223° |
| 2026-05-01 08:16 | 57.72196 | 15.65083 | 14707 ft | 307 kts | 223° |
| 2026-05-01 08:16 | 57.70538 | 15.62672 | 14406 ft | 305 kts | 223° |
| 2026-05-01 08:16 | 57.68870 | 15.60247 | 14094 ft | 303 kts | 223° |
| 2026-05-01 08:17 | 57.66649 | 15.57027 | 13634 ft | 301 kts | 222° |
| 2026-05-01 08:17 | 57.65560 | 15.55448 | 13428 ft | 299 kts | 222° |
| 2026-05-01 08:17 | 57.63924 | 15.53079 | 13119 ft | 296 kts | 222° |
| 2026-05-01 08:17 | 57.62303 | 15.50734 | 12815 ft | 293 kts | 222° |
| 2026-05-01 08:18 | 57.60694 | 15.48408 | 12522 ft | 291 kts | 222° |
| 2026-05-01 08:18 | 57.57509 | 15.43818 | 11893 ft | 289 kts | 221° |
| 2026-05-01 08:19 | 57.54345 | 15.39270 | 11299 ft | 285 kts | 221° |
| 2026-05-01 08:19 | 57.52779 | 15.37023 | 11001 ft | 284 kts | 220° |
| 2026-05-01 08:19 | 57.51220 | 15.34787 | 10718 ft | 282 kts | 220° |
| 2026-05-01 08:19 | 57.49671 | 15.32571 | 10481 ft | 278 kts | 220° |
| 2026-05-01 08:20 | 57.48157 | 15.30405 | 10344 ft | 271 kts | 220° |
| 2026-05-01 08:20 | 57.46667 | 15.28274 | 10054 ft | 270 kts | 220° |
| 2026-05-01 08:20 | 57.45185 | 15.26155 | 9766 ft | 268 kts | 220° |
| 2026-05-01 08:20 | 57.43706 | 15.24049 | 9446 ft | 267 kts | 220° |
| 2026-05-01 08:21 | 57.42237 | 15.21956 | 9173 ft | 264 kts | 220° |
| 2026-05-01 08:21 | 57.40785 | 15.19892 | 8895 ft | 262 kts | 220° |
| 2026-05-01 08:21 | 57.39332 | 15.17826 | 8608 ft | 265 kts | 221° |
| 2026-05-01 08:21 | 57.37856 | 15.15723 | 8331 ft | 270 kts | 220° |
| 2026-05-01 08:22 | 57.36361 | 15.13601 | 8043 ft | 272 kts | 220° |
| 2026-05-01 08:22 | 57.34831 | 15.11522 | 7716 ft | 274 kts | 219° |
| 2026-05-01 08:22 | 57.33287 | 15.09446 | 7410 ft | 274 kts | 219° |
| 2026-05-01 08:22 | 57.31746 | 15.07374 | 7139 ft | 275 kts | 219° |
| 2026-05-01 08:23 | 57.30196 | 15.05283 | 6812 ft | 276 kts | 219° |
| 2026-05-01 08:23 | 57.28640 | 15.03189 | 6489 ft | 277 kts | 219° |
| 2026-05-01 08:23 | 57.27077 | 15.01087 | 6187 ft | 279 kts | 219° |
| 2026-05-01 08:23 | 57.25512 | 14.98979 | 5896 ft | 277 kts | 219° |
| 2026-05-01 08:24 | 57.23955 | 14.96881 | 5562 ft | 278 kts | 219° |
| 2026-05-01 08:24 | 57.22376 | 14.94765 | 5089 ft | 285 kts | 219° |
| 2026-05-01 08:24 | 57.20773 | 14.92618 | 4792 ft | 283 kts | 219° |
| 2026-05-01 08:24 | 57.19199 | 14.90515 | 4612 ft | 274 kts | 219° |
| 2026-05-01 08:25 | 57.17691 | 14.88495 | 4461 ft | 264 kts | 220° |
| 2026-05-01 08:25 | 57.16225 | 14.86534 | 4308 ft | 257 kts | 220° |
| 2026-05-01 08:25 | 57.14795 | 14.84628 | 4165 ft | 252 kts | 220° |
| 2026-05-01 08:25 | 57.13388 | 14.82750 | 3986 ft | 247 kts | 219° |
| 2026-05-01 08:26 | 57.11927 | 14.81252 | 3935 ft | 235 kts | 207° |
| 2026-05-01 08:26 | 57.10408 | 14.80300 | 3767 ft | 230 kts | 199° |
| 2026-05-01 08:26 | 57.08841 | 14.79596 | 3462 ft | 233 kts | 197° |
| 2026-05-01 08:26 | 57.07285 | 14.78939 | 3137 ft | 231 kts | 197° |
| 2026-05-01 08:27 | 57.05752 | 14.78285 | 2871 ft | 212 kts | 198° |
| 2026-05-01 08:27 | 57.04422 | 14.77723 | 2709 ft | 187 kts | 198° |
| 2026-05-01 08:27 | 57.03213 | 14.77202 | 2448 ft | 170 kts | 200° |
| 2026-05-01 08:27 | 57.02103 | 14.76730 | 2204 ft | 160 kts | 201° |
| 2026-05-01 08:28 | 57.01016 | 14.76258 | 2041 ft | 163 kts | 200° |
| 2026-05-01 08:28 | 56.99903 | 14.75780 | 1810 ft | 163 kts | 200° |
| 2026-05-01 08:28 | 56.98805 | 14.75299 | 1604 ft | 162 kts | 199° |
| 2026-05-01 08:28 | 56.97716 | 14.74837 | 1383 ft | 159 kts | 196° |
| 2026-05-01 08:29 | 56.96649 | 14.74396 | 1166 ft | 159 kts | 197° |
| 2026-05-01 08:29 | 56.95578 | 14.73935 | 995 ft | 157 kts | 195° |
| 2026-05-01 08:29 | 56.94531 | 14.73493 | 773 ft | 152 kts | 197° |
| 2026-05-01 08:29 | 56.93514 | 14.73057 | 601 ft | 144 kts | 198° |
| 2026-05-01 08:30 | 56.92703 | 14.72704 | 598 ft | 79 kts | 193° |
| 2026-05-01 08:30 | 56.92368 | 14.72553 | 600 ft | 49 kts | 195° |
| 2026-05-01 08:30 | 56.92070 | 14.72433 | 598 ft | 19 kts | 192° |
| 2026-05-01 08:30 | 56.91990 | 14.72490 | 598 ft | 8 kts | 114° |
| 2026-05-01 08:31 | 56.91982 | 14.72581 | 599 ft | 8 kts | 90° |
| 2026-05-01 08:31 | 56.92005 | 14.72719 | 599 ft | 18 kts | 53° |
| 2026-05-01 08:31 | 56.92154 | 14.72825 | 599 ft | 27 kts | 12° |
| 2026-05-01 08:31 | 56.92349 | 14.72906 | 599 ft | 30 kts | 14° |
| 2026-05-01 08:32 | 56.92453 | 14.72952 | 599 ft | 4 kts | 13° |
| 2026-05-01 08:32 | 56.92465 | 14.72957 | 599 ft | 2 kts | 13° |
| 2026-05-01 08:32 | 56.92471 | 14.72972 | 599 ft | 1 kts | 84° |
| 2026-05-01 08:32 | 56.92464 | 14.73001 | 599 ft | 3 kts | 140° |
| 2026-05-01 08:33 | 56.92448 | 14.73022 | 599 ft | 2 kts | 142° |
| 2026-05-01 08:33 | 56.92444 | 14.73029 | 599 ft | 0 kts | 142° |
| 2026-05-01 08:33 | 56.92443 | 14.73029 | 599 ft | 0 kts | 142° |